createdAt,value
2019-04-11T00:00:17.467Z,11.75
2019-04-11T00:02:47.706Z,11.90
2019-04-11T00:05:17.554Z,11.70
2019-04-11T00:07:47.465Z,11.95
2019-04-11T00:10:17.447Z,11.68
2019-04-11T00:12:48.521Z,12.28
2019-04-11T00:15:18.653Z,12.85
2019-04-11T00:17:48.652Z,11.45
2019-04-11T00:20:18.487Z,10.18
2019-04-11T00:22:48.357Z,11.45
2019-04-11T00:25:18.345Z,10.45
2019-04-11T00:27:48.950Z,10.95
2019-04-11T00:30:19.813Z,10.78
2019-04-11T00:32:49.882Z,10.53
2019-04-11T00:35:19.791Z,9.73
2019-04-11T00:37:49.578Z,10.28
2019-04-11T00:40:19.964Z,12.23
2019-04-11T00:42:51.008Z,10.78
2019-04-11T00:45:21.291Z,10.05
2019-04-11T00:47:51.266Z,12.23
2019-04-11T00:50:21.207Z,9.88
2019-04-11T00:52:51.665Z,10.53
2019-04-11T00:55:21.782Z,11.33
2019-04-11T00:57:52.938Z,9.70
2019-04-11T01:00:22.912Z,9.10
2019-04-11T01:02:53.698Z,7.67
2019-04-11T01:05:23.625Z,9.15
2019-04-11T01:07:56.223Z,10.43
2019-04-11T01:10:26.558Z,11.05
2019-04-11T01:12:56.704Z,9.20
2019-04-11T01:15:27.180Z,8.40
2019-04-11T01:17:57.921Z,8.63
2019-04-11T01:20:27.799Z,9.88
2019-04-11T01:22:58.461Z,9.48
2019-04-11T01:25:28.506Z,8.23
2019-04-11T01:27:58.551Z,7.83
2019-04-11T01:30:30.653Z,8.88
2019-04-11T01:33:02.505Z,10.00
2019-04-11T01:35:33.136Z,8.93
2019-04-11T01:38:03.988Z,8.25
2019-04-11T01:40:33.959Z,6.97
2019-04-11T01:43:04.208Z,9.78
2019-04-11T01:45:34.062Z,9.48
2019-04-11T01:48:11.405Z,8.28
2019-04-11T01:52:58.425Z,6.83
2019-04-11T01:55:28.783Z,7.25
2019-04-11T01:57:58.614Z,10.85
2019-04-11T02:00:30.261Z,7.85
2019-04-11T02:03:01.724Z,7.78
2019-04-11T02:05:33.101Z,8.23
2019-04-11T02:08:02.969Z,7.05
2019-04-11T02:10:34.898Z,10.30
2019-04-11T02:13:05.822Z,8.50
2019-04-11T02:15:36.635Z,8.10
2019-04-11T02:18:07.556Z,7.97
2019-04-11T02:20:38.783Z,6.17
2019-04-11T02:23:10.888Z,9.43
2019-04-11T02:25:54.515Z,8.48
2019-04-11T02:28:24.458Z,7.33
2019-04-11T02:30:56.614Z,5.95
2019-04-11T02:33:27.058Z,6.15
2019-04-11T02:35:57.279Z,6.78
2019-04-11T02:38:30.333Z,6.67
2019-04-11T02:41:01.171Z,6.20
2019-04-11T02:43:32.019Z,7.65
2019-04-11T02:46:11.834Z,6.30
2019-04-11T02:48:35.577Z,6.95
2019-04-11T02:53:36.831Z,7.35
2019-04-11T02:56:08.641Z,5.62
2019-04-11T02:58:40.096Z,6.87
2019-04-11T03:03:42.159Z,6.75
2019-04-11T03:06:11.722Z,7.28
2019-04-11T03:08:43.623Z,6.03
2019-04-11T03:11:14.352Z,6.25
2019-04-11T03:13:44.886Z,5.67
2019-04-11T03:16:29.624Z,7.70
2019-04-11T03:19:05.645Z,6.28
2019-04-11T03:21:21.890Z,5.78
2019-04-11T03:23:51.437Z,5.05
2019-04-11T03:26:21.671Z,7.25
2019-04-11T03:28:55.632Z,6.35
2019-04-11T03:34:39.808Z,5.15
2019-04-11T03:39:14.815Z,6.30
2019-04-11T03:41:48.766Z,5.22
2019-04-11T03:44:13.825Z,5.92
2019-04-11T03:46:49.545Z,5.80
2019-04-11T03:49:19.383Z,5.75
2019-04-11T03:51:37.074Z,6.33
2019-04-11T03:54:09.600Z,5.85
2019-04-11T03:56:39.072Z,5.97
2019-04-11T03:59:12.411Z,6.55
2019-04-11T04:04:13.309Z,5.25
2019-04-11T04:08:15.780Z,6.62
2019-04-11T04:11:04.096Z,6.83
2019-04-11T04:13:36.908Z,5.10
2019-04-11T04:16:19.843Z,5.62
2019-04-11T04:18:45.809Z,6.20
2019-04-11T04:21:24.694Z,6.28
2019-04-11T04:23:55.970Z,4.65
2019-04-11T04:26:26.950Z,5.87
2019-04-11T04:28:57.793Z,5.35
2019-04-11T04:31:28.627Z,4.70
2019-04-11T04:33:59.624Z,4.97
2019-04-11T04:36:30.903Z,4.57
2019-04-11T04:39:01.930Z,4.37
2019-04-11T04:41:42.898Z,4.80
2019-04-11T04:44:06.484Z,4.72
2019-04-11T04:46:52.648Z,6.40
2019-04-11T04:49:11.057Z,4.65
2019-04-11T04:51:41.556Z,4.22
2019-04-11T04:54:12.155Z,5.03
2019-04-11T04:56:43.704Z,4.37
2019-04-11T04:59:14.655Z,5.00
2019-04-11T05:01:46.302Z,4.25
2019-04-11T05:04:16.404Z,5.20
2019-04-11T05:06:48.307Z,4.67
2019-04-11T05:09:17.929Z,4.03
2019-04-11T05:11:48.751Z,4.67
2019-04-11T05:14:20.852Z,3.55
2019-04-11T05:16:52.152Z,3.98
2019-04-11T05:19:23.767Z,5.35
2019-04-11T05:24:35.292Z,4.85
2019-04-11T05:27:06.241Z,4.05
2019-04-11T05:29:37.636Z,3.75
2019-04-11T05:32:07.575Z,4.50
2019-04-11T05:34:39.331Z,3.90
2019-04-11T05:37:09.197Z,4.30
2019-04-11T05:39:39.842Z,3.70
2019-04-11T05:42:11.264Z,4.28
2019-04-11T05:44:41.756Z,3.47
2019-04-11T05:47:14.567Z,5.55
2019-04-11T05:49:56.848Z,4.80
2019-04-11T05:52:30.518Z,3.83
2019-04-11T05:55:00.728Z,4.58
2019-04-11T05:57:35.525Z,3.70
2019-04-11T06:00:03.458Z,4.17
2019-04-11T06:02:39.440Z,3.47
2019-04-11T06:05:17.249Z,3.42
2019-04-11T06:07:54.797Z,4.45
2019-04-11T06:10:28.269Z,3.52
2019-04-11T06:13:16.460Z,3.27
2019-04-11T06:15:54.066Z,3.70
2019-04-11T06:18:44.979Z,3.25
2019-04-11T06:21:24.399Z,3.40
2019-04-11T06:24:08.331Z,3.42
2019-04-11T06:26:40.808Z,3.77
2019-04-11T06:29:24.381Z,5.15
2019-04-11T06:32:09.706Z,4.80
2019-04-11T06:34:41.705Z,5.20
2019-04-11T06:38:06.672Z,5.00
2019-04-11T06:40:56.463Z,3.67
2019-04-11T06:43:34.181Z,11.80
2019-04-11T06:46:09.086Z,6.28
2019-04-11T06:48:40.664Z,5.28
2019-04-11T06:51:12.177Z,4.65
2019-04-11T06:53:44.111Z,3.85
2019-04-11T06:56:16.725Z,6.78
2019-04-11T06:58:50.731Z,4.75
2019-04-11T07:01:22.317Z,7.72
2019-04-11T07:03:57.506Z,2.90
2019-04-11T07:06:29.448Z,2.75
2019-04-11T07:11:55.074Z,3.47
2019-04-11T07:14:43.382Z,4.15
2019-04-11T07:17:31.797Z,4.20
2019-04-11T07:20:20.693Z,3.75
2019-04-11T07:23:09.112Z,6.60
2019-04-11T07:25:47.378Z,7.28
2019-04-11T07:31:42.147Z,5.05
2019-04-11T07:34:14.669Z,3.40
2019-04-11T07:40:03.331Z,4.78
2019-04-11T07:42:41.172Z,3.35
2019-04-11T07:45:27.652Z,4.72
2019-04-11T07:48:02.810Z,2.98
2019-04-11T07:50:33.330Z,5.72
2019-04-11T07:53:04.978Z,4.62
2019-04-11T07:55:36.529Z,2.62
2019-04-11T07:58:23.980Z,4.65
2019-04-11T08:00:55.935Z,3.80
2019-04-11T08:03:27.742Z,3.58
2019-04-11T08:06:08.477Z,4.35
2019-04-11T08:08:56.623Z,5.03
2019-04-11T08:11:28.237Z,6.87
2019-04-11T08:14:06.387Z,3.33
2019-04-11T08:16:38.945Z,2.83
2019-04-11T08:19:27.378Z,2.62
2019-04-11T08:22:02.943Z,2.77
2019-04-11T08:27:50.959Z,5.03
2019-04-11T08:30:10.911Z,2.75
2019-04-11T08:32:49.824Z,8.17
2019-04-11T08:35:28.358Z,3.47
2019-04-11T08:38:05.936Z,4.58
2019-04-11T08:40:53.350Z,4.90
2019-04-11T08:43:33.730Z,3.85
2019-04-11T08:46:06.613Z,5.15
2019-04-11T08:48:41.160Z,4.37
2019-04-11T08:51:14.843Z,4.20
2019-04-11T08:53:46.400Z,4.72
2019-04-11T08:56:18.991Z,4.95
2019-04-11T08:59:11.641Z,2.35
2019-04-11T09:01:42.400Z,2.67
2019-04-11T09:04:26.076Z,5.30
2019-04-11T09:06:57.347Z,4.03
2019-04-11T09:09:40.930Z,7.67
2019-04-11T09:12:12.593Z,3.58
2019-04-11T09:14:46.895Z,2.60
2019-04-11T09:17:19.527Z,3.02
2019-04-11T09:19:55.038Z,2.70
2019-04-11T09:22:33.210Z,2.70
2019-04-11T09:25:05.250Z,3.20
2019-04-11T09:30:17.476Z,3.27
2019-04-11T09:32:49.211Z,3.90
2019-04-11T09:35:37.393Z,5.05
2019-04-11T09:38:18.254Z,3.62
2019-04-11T09:40:50.098Z,4.17
2019-04-11T09:43:24.509Z,4.47
2019-04-11T09:46:12.331Z,3.10
2019-04-11T09:48:46.477Z,6.33
2019-04-11T09:51:21.758Z,6.40
2019-04-11T09:54:01.454Z,4.47
2019-04-11T09:56:36.392Z,2.62
2019-04-11T09:59:20.801Z,3.50
2019-04-11T10:01:58.334Z,3.05
2019-04-11T10:04:29.843Z,5.17
2019-04-11T10:07:17.661Z,3.30
2019-04-11T10:09:55.464Z,4.37
2019-04-11T10:12:40.586Z,4.28
2019-04-11T10:15:11.431Z,3.72
2019-04-11T10:18:00.714Z,2.50
2019-04-11T10:20:31.384Z,8.35
2019-04-11T10:23:03.315Z,7.47
2019-04-11T10:25:35.331Z,7.20
2019-04-11T10:28:19.594Z,6.15
2019-04-11T10:30:55.715Z,8.85
2019-04-11T10:33:39.408Z,5.33
2019-04-11T10:37:11.670Z,8.50
2019-04-11T10:39:53.526Z,14.78
2019-04-11T10:42:26.588Z,7.40
2019-04-11T10:45:16.254Z,10.40
2019-04-11T10:47:47.300Z,7.70
2019-04-11T10:50:19.683Z,10.83
2019-04-11T10:52:51.523Z,7.60
2019-04-11T10:55:22.917Z,6.42
2019-04-11T10:58:06.758Z,4.37
2019-04-11T11:00:38.327Z,3.80
2019-04-11T11:03:11.721Z,6.78
2019-04-11T11:05:47.157Z,5.47
2019-04-11T11:09:58.685Z,7.12
2019-04-11T11:12:30.285Z,4.83
2019-04-11T11:15:11.510Z,5.62
2019-04-11T11:18:32.051Z,5.50
2019-04-11T11:20:38.675Z,7.97
2019-04-11T11:23:22.033Z,5.50
2019-04-11T11:26:02.818Z,5.70
2019-04-11T11:28:51.906Z,4.70
2019-04-11T11:31:26.137Z,5.85
2019-04-11T11:33:58.841Z,5.42
2019-04-11T11:36:37.987Z,4.20
2019-04-11T11:39:19.336Z,6.42
2019-04-11T11:42:08.589Z,8.00
2019-04-11T11:44:55.263Z,3.60
2019-04-11T11:47:43.200Z,4.25
2019-04-11T11:50:21.288Z,2.52
2019-04-11T11:53:07.368Z,2.92
2019-04-11T11:55:39.503Z,3.55
2019-04-11T11:58:16.794Z,4.22
2019-04-11T12:00:49.705Z,2.40
2019-04-11T12:03:37.123Z,3.30
2019-04-11T12:06:09.760Z,2.45
2019-04-11T12:10:57.543Z,2.22
2019-04-11T12:13:41.216Z,2.33
2019-04-11T12:16:21.324Z,2.50
2019-04-11T12:18:54.368Z,2.85
2019-04-11T12:21:28.488Z,2.65
2019-04-11T12:24:19.615Z,2.55
2019-04-11T12:27:04.485Z,2.98
2019-04-11T12:29:46.376Z,2.40
2019-04-11T12:32:18.474Z,2.62
2019-04-11T12:35:06.579Z,2.60
2019-04-11T12:37:45.354Z,2.80
2019-04-11T12:40:33.915Z,4.12
2019-04-11T12:43:06.405Z,2.60
2019-04-11T12:45:54.053Z,2.75
2019-04-11T12:48:25.909Z,3.00
2019-04-11T12:51:12.524Z,3.05
2019-04-11T12:53:42.278Z,2.45
2019-04-11T12:56:19.845Z,2.45
2019-04-11T12:58:51.897Z,2.80
2019-04-11T13:01:26.058Z,2.22
2019-04-11T13:04:00.487Z,2.65
2019-04-11T13:09:17.657Z,2.27
2019-04-11T13:11:49.567Z,3.27
2019-04-11T13:14:27.124Z,3.08
2019-04-11T13:17:01.901Z,2.77
2019-04-11T13:21:38.210Z,1.82
2019-04-11T13:24:12.842Z,2.27
2019-04-11T13:27:00.658Z,12.25
2019-04-11T13:29:38.581Z,2.55
2019-04-11T13:32:28.013Z,3.17
2019-04-11T13:35:02.543Z,2.45
2019-04-11T13:37:50.009Z,5.30
2019-04-11T13:40:33.542Z,3.30
2019-04-11T13:43:14.173Z,2.20
2019-04-11T13:46:13.148Z,2.55
2019-04-11T13:48:44.981Z,4.60
2019-04-11T13:51:31.627Z,3.33
2019-04-11T13:54:20.902Z,3.80
2019-04-11T13:57:09.152Z,2.20
2019-04-11T13:59:57.183Z,1.87
2019-04-11T14:03:53.749Z,2.00
2019-04-11T14:06:23.686Z,3.08
2019-04-11T14:09:11.541Z,4.10
2019-04-11T14:11:42.993Z,2.35
2019-04-11T14:14:14.488Z,2.35
2019-04-11T14:16:51.803Z,2.22
2019-04-11T14:19:23.229Z,5.87
2019-04-11T14:21:53.063Z,1.87
2019-04-11T14:24:24.403Z,2.10
2019-04-11T14:26:56.118Z,2.27
2019-04-11T14:29:36.331Z,2.55
2019-04-11T14:35:08.718Z,2.45
2019-04-11T14:37:43.548Z,3.87
2019-04-11T14:40:18.016Z,2.77
2019-04-11T14:42:49.567Z,4.25
2019-04-11T14:45:23.516Z,2.15
2019-04-11T14:48:11.490Z,4.10
2019-04-11T14:52:34.377Z,2.47
2019-04-11T14:55:05.394Z,2.45
2019-04-11T14:57:46.865Z,2.42
2019-04-11T15:00:27.266Z,2.20
2019-04-11T15:02:58.904Z,4.15
2019-04-11T15:05:48.663Z,1.87
2019-04-11T15:08:22.759Z,2.77
2019-04-11T15:10:57.097Z,4.22
2019-04-11T15:13:28.621Z,4.67
2019-04-11T15:16:11.032Z,2.20
2019-04-11T15:18:42.342Z,6.72
2019-04-11T15:21:15.019Z,3.08
2019-04-11T15:23:44.863Z,3.33
2019-04-11T15:26:32.800Z,2.58
2019-04-11T15:29:04.332Z,3.00
2019-04-11T15:31:39.387Z,6.65
2019-04-11T15:34:19.287Z,5.47
2019-04-11T15:36:57.758Z,3.98
2019-04-11T15:39:44.577Z,3.75
2019-04-11T15:42:17.207Z,2.98
2019-04-11T15:44:54.378Z,4.70
2019-04-11T15:47:28.836Z,5.37
2019-04-11T15:50:05.381Z,4.83
2019-04-11T15:52:37.029Z,2.58
2019-04-11T15:55:25.567Z,2.00
2019-04-11T15:57:55.307Z,2.98
2019-04-11T16:00:44.436Z,2.35
2019-04-11T16:06:16.524Z,2.08
2019-04-11T16:08:46.618Z,2.17
2019-04-11T16:11:34.231Z,3.60
2019-04-11T16:14:05.473Z,2.37
2019-04-11T16:16:46.189Z,2.12
2019-04-11T16:19:20.601Z,2.42
2019-04-11T16:22:08.603Z,2.05
2019-04-11T16:24:39.992Z,3.00
2019-04-11T16:27:14.365Z,6.25
2019-04-11T16:29:47.434Z,9.00
2019-04-11T16:32:19.136Z,9.65
2019-04-11T16:34:55.701Z,9.55
2019-04-11T16:37:24.697Z,32.42
2019-04-11T16:40:10.478Z,16.95
2019-04-11T16:42:43.279Z,21.97
2019-04-11T16:45:31.649Z,23.87
2019-04-11T16:50:45.764Z,20.37
2019-04-11T16:53:15.783Z,23.60
2019-04-11T16:55:45.532Z,23.67
2019-04-11T16:58:19.235Z,26.10
2019-04-11T17:00:52.278Z,28.87
2019-04-11T17:03:18.881Z,35.50
2019-04-11T17:05:49.829Z,27.25
2019-04-11T17:08:21.121Z,26.45
2019-04-11T17:11:10.916Z,27.22
2019-04-11T17:13:41.113Z,31.37
2019-04-11T17:16:12.825Z,27.22
2019-04-11T17:18:42.643Z,28.57
2019-04-11T17:21:12.427Z,30.85
2019-04-11T17:23:46.782Z,36.60
2019-04-11T17:26:15.790Z,43.30
2019-04-11T17:28:46.625Z,47.20
2019-04-11T17:31:16.526Z,41.28
2019-04-11T17:33:46.508Z,33.55
2019-04-11T17:36:16.297Z,25.30
2019-04-11T17:38:46.266Z,27.42
2019-04-11T17:41:16.160Z,18.75
2019-04-11T17:43:51.397Z,19.52
2019-04-11T17:46:19.209Z,14.98
2019-04-11T17:48:50.412Z,11.28
2019-04-11T17:51:20.349Z,10.08
2019-04-11T17:53:50.223Z,11.55
2019-04-11T17:56:19.999Z,7.37
2019-04-11T17:58:49.836Z,7.65
2019-04-11T18:01:19.795Z,6.83
2019-04-11T18:03:49.586Z,5.37
2019-04-11T18:06:19.398Z,9.65
2019-04-11T18:08:51.591Z,9.40
2019-04-11T18:11:25.662Z,8.23
2019-04-11T18:13:53.711Z,6.33
2019-04-11T18:16:23.628Z,5.20
2019-04-11T18:18:54.511Z,11.28
2019-04-11T18:21:25.837Z,6.10
2019-04-11T18:23:55.507Z,7.80
2019-04-11T18:26:25.186Z,9.80
2019-04-11T18:28:55.029Z,5.78
2019-04-11T18:31:25.573Z,5.95
2019-04-11T18:33:55.626Z,6.95
2019-04-11T18:36:25.448Z,5.70
2019-04-11T18:38:56.409Z,7.83
2019-04-11T18:41:26.161Z,4.90
2019-04-11T18:43:55.624Z,5.08
2019-04-11T18:46:25.124Z,7.87
2019-04-11T18:48:54.849Z,4.40
2019-04-11T18:51:24.682Z,6.25
2019-04-11T18:53:54.421Z,6.85
2019-04-11T18:56:24.187Z,3.10
2019-04-11T19:01:02.051Z,6.70
2019-04-11T19:03:36.323Z,10.10
2019-04-11T19:06:03.580Z,3.27
2019-04-11T19:10:14.546Z,4.30
2019-04-11T19:12:46.446Z,5.17
2019-04-11T19:15:16.944Z,4.90
2019-04-11T19:17:47.214Z,4.83
2019-04-11T19:20:19.172Z,3.47
2019-04-11T19:22:49.922Z,3.37
2019-04-11T19:25:20.794Z,4.45
2019-04-11T19:27:54.089Z,5.83
2019-04-11T19:30:23.990Z,6.85
2019-04-11T19:32:54.065Z,5.28
2019-04-11T19:35:23.597Z,5.92
2019-04-11T19:37:53.535Z,4.45
2019-04-11T19:40:23.983Z,3.33
2019-04-11T19:42:54.931Z,3.40
2019-04-11T19:45:24.730Z,4.53
2019-04-11T19:47:56.619Z,4.30
2019-04-11T19:50:26.768Z,3.75
2019-04-11T19:52:58.156Z,4.60
2019-04-11T19:55:29.708Z,3.33
2019-04-11T19:57:59.583Z,4.85
2019-04-11T20:00:29.615Z,5.30
2019-04-11T20:05:26.475Z,2.85
2019-04-11T20:07:56.307Z,4.12
2019-04-11T20:10:25.897Z,2.92
2019-04-11T20:12:55.524Z,5.37
2019-04-11T20:15:36.491Z,3.02
2019-04-11T20:17:56.719Z,2.20
2019-04-11T20:20:26.632Z,2.98
2019-04-11T20:22:59.243Z,2.85
2019-04-11T20:25:27.729Z,7.40
2019-04-11T20:27:58.394Z,3.30
2019-04-11T20:30:28.245Z,3.55
2019-04-11T20:32:58.132Z,2.70
2019-04-11T20:35:29.067Z,2.50
2019-04-11T20:37:59.425Z,4.03
2019-04-11T20:40:29.232Z,7.53
2019-04-11T20:42:59.126Z,3.17
2019-04-11T20:45:30.613Z,6.75
2019-04-11T20:48:00.983Z,2.98
2019-04-11T20:50:30.870Z,2.12
2019-04-11T20:53:11.937Z,8.23
2019-04-11T20:55:32.072Z,9.23
2019-04-11T20:58:01.945Z,3.75
2019-04-11T21:00:31.798Z,5.75
2019-04-11T21:03:02.859Z,6.70
2019-04-11T21:05:32.455Z,6.37
2019-04-11T21:08:03.098Z,4.47
2019-04-11T21:10:34.125Z,5.65
2019-04-11T21:13:06.840Z,2.40
2019-04-11T21:15:36.330Z,2.87
2019-04-11T21:18:06.096Z,5.95
2019-04-11T21:20:35.950Z,4.97
2019-04-11T21:23:05.677Z,6.42
2019-04-11T21:25:35.512Z,2.67
2019-04-11T21:28:05.250Z,1.90
2019-04-11T21:30:38.687Z,4.08
2019-04-11T21:33:08.241Z,7.22
2019-04-11T21:35:37.680Z,3.52
2019-04-11T21:38:07.405Z,3.42
2019-04-11T21:40:37.445Z,10.10
2019-04-11T21:43:08.285Z,3.90
2019-04-11T21:45:38.004Z,5.62
2019-04-11T21:48:07.952Z,2.35
2019-04-11T21:50:40.279Z,3.10
2019-04-11T21:53:13.760Z,2.22
2019-04-11T21:55:40.950Z,3.55
2019-04-11T21:58:10.846Z,2.45
2019-04-11T22:00:43.033Z,2.87
2019-04-11T22:03:14.417Z,2.27
2019-04-11T22:05:44.294Z,2.33
2019-04-11T22:08:14.862Z,2.27
2019-04-11T22:10:44.403Z,1.90
2019-04-11T22:13:14.238Z,3.92
2019-04-11T22:15:44.094Z,1.80
2019-04-11T22:18:16.822Z,3.17
2019-04-11T22:21:36.701Z,3.52
2019-04-11T22:24:06.712Z,1.90
2019-04-11T22:26:36.528Z,2.75
2019-04-11T22:29:06.215Z,2.05
2019-04-11T22:31:35.983Z,4.45
2019-04-11T22:34:07.309Z,2.87
2019-04-11T22:36:37.131Z,2.90
2019-04-11T22:39:08.171Z,2.52
2019-04-11T22:41:37.830Z,1.95
2019-04-11T22:44:08.003Z,1.75
2019-04-11T22:46:38.355Z,2.15
2019-04-11T22:49:09.394Z,2.17
2019-04-11T22:51:42.714Z,2.13
2019-04-11T22:54:12.925Z,2.45
2019-04-11T22:56:42.460Z,2.47
2019-04-11T22:59:14.040Z,1.80
2019-04-11T23:01:46.591Z,1.72
2019-04-11T23:04:17.107Z,1.98
2019-04-11T23:06:47.115Z,3.35
2019-04-11T23:09:19.505Z,2.77
2019-04-11T23:11:49.320Z,2.17
2019-04-11T23:14:19.453Z,1.70
2019-04-11T23:16:49.255Z,2.27
2019-04-11T23:19:19.141Z,1.82
2019-04-11T23:21:48.665Z,3.52
2019-04-11T23:24:18.522Z,3.60
2019-04-11T23:26:48.091Z,1.42
2019-04-11T23:29:18.900Z,2.05
2019-04-11T23:31:50.721Z,1.80
2019-04-11T23:34:22.180Z,2.60
2019-04-11T23:36:51.790Z,1.87
2019-04-11T23:39:22.930Z,1.62
2019-04-11T23:41:53.286Z,2.25
2019-04-11T23:44:23.411Z,1.70
2019-04-11T23:46:53.205Z,1.67
2019-04-11T23:49:25.245Z,2.00
2019-04-11T23:51:55.881Z,1.95
2019-04-11T23:54:28.927Z,2.17
2019-04-11T23:57:00.481Z,1.90
2019-04-11T23:59:32.166Z,1.90
